sensor_id;sensor_type;location;lat;lon;timestamp;pressure;altitude;pressure_sealevel;temperature;humidity
6425;BME280;12193;42.642;23.384;2023-03-31T00:01:59;59546.94;;;-140.48;100.00
6425;BME280;12193;42.642;23.384;2023-03-31T00:04:28;59546.94;;;-140.48;100.00
6425;BME280;12193;42.642;23.384;2023-03-31T03:08:46;94368.22;;;9.87;85.10
6425;BME280;12193;42.642;23.384;2023-03-31T03:11:24;94364.81;;;9.80;84.43
6425;BME280;12193;42.642;23.384;2023-03-31T03:14:02;94356.25;;;9.99;82.22
6425;BME280;12193;42.642;23.384;2023-03-31T03:16:36;94359.63;;;9.87;83.23
6425;BME280;12193;42.642;23.384;2023-03-31T03:19:09;94353.84;;;9.85;82.93
6425;BME280;12193;42.642;23.384;2023-03-31T03:21:46;94337.88;;;10.01;82.91
6425;BME280;12193;42.642;23.384;2023-03-31T03:24:18;94345.84;;;10.25;80.28
6425;BME280;12193;42.642;23.384;2023-03-31T03:26:48;94332.06;;;10.25;82.10
6425;BME280;12193;42.642;23.384;2023-03-31T03:29:17;94355.25;;;10.13;87.49
6425;BME280;12193;42.642;23.384;2023-03-31T03:31:47;94350.41;;;9.52;80.90
6425;BME280;12193;42.642;23.384;2023-03-31T03:34:16;94338.94;;;9.01;85.36
6425;BME280;12193;42.642;23.384;2023-03-31T03:36:46;94347.69;;;8.94;86.93
6425;BME280;12193;42.642;23.384;2023-03-31T03:39:18;94341.03;;;8.78;88.49
6425;BME280;12193;42.642;23.384;2023-03-31T03:41:47;94340.09;;;8.92;89.96
6425;BME280;12193;42.642;23.384;2023-03-31T03:44:17;94347.94;;;9.12;88.96
6425;BME280;12193;42.642;23.384;2023-03-31T03:46:46;94338.50;;;8.98;89.56
6425;BME280;12193;42.642;23.384;2023-03-31T03:49:15;94338.56;;;9.04;89.60
6425;BME280;12193;42.642;23.384;2023-03-31T03:51:45;94339.00;;;9.27;89.10
6425;BME280;12193;42.642;23.384;2023-03-31T03:54:17;94334.22;;;9.30;89.26
6425;BME280;12193;42.642;23.384;2023-03-31T03:56:47;94333.84;;;9.33;89.07
6425;BME280;12193;42.642;23.384;2023-03-31T03:59:16;94338.59;;;9.24;89.91
6425;BME280;12193;42.642;23.384;2023-03-31T04:01:45;94331.41;;;9.38;89.71
6425;BME280;12193;42.642;23.384;2023-03-31T04:04:15;94343.78;;;9.30;90.79
6425;BME280;12193;42.642;23.384;2023-03-31T04:06:44;94334.22;;;9.24;89.95
6425;BME280;12193;42.642;23.384;2023-03-31T04:09:14;94340.19;;;9.25;85.53
6425;BME280;12193;42.642;23.384;2023-03-31T04:11:46;94330.63;;;9.31;82.59
6425;BME280;12193;42.642;23.384;2023-03-31T04:14:15;94335.03;;;9.44;83.55
6425;BME280;12193;42.642;23.384;2023-03-31T04:16:44;94335.06;;;9.50;82.85
6425;BME280;12193;42.642;23.384;2023-03-31T04:19:14;94340.25;;;9.63;80.03
6425;BME280;12193;42.642;23.384;2023-03-31T04:21:47;94339.66;;;9.74;80.81
6425;BME280;12193;42.642;23.384;2023-03-31T04:24:24;94345.63;;;9.81;80.36
6425;BME280;12193;42.642;23.384;2023-03-31T04:27:00;94342.88;;;10.02;84.66
6425;BME280;12193;42.642;23.384;2023-03-31T04:29:32;94345.06;;;10.18;85.94
6425;BME280;12193;42.642;23.384;2023-03-31T04:32:02;94338.06;;;10.19;86.14
6425;BME280;12193;42.642;23.384;2023-03-31T04:34:32;94334.25;;;10.21;85.57
6425;BME280;12193;42.642;23.384;2023-03-31T04:37:04;94343.25;;;10.25;85.17
6425;BME280;12193;42.642;23.384;2023-03-31T04:39:35;94343.22;;;10.32;84.86
6425;BME280;12193;42.642;23.384;2023-03-31T04:42:07;94347.03;;;10.35;80.82
6425;BME280;12193;42.642;23.384;2023-03-31T04:44:37;94334.03;;;10.48;83.11
6425;BME280;12193;42.642;23.384;2023-03-31T04:47:06;94335.88;;;10.16;81.48
6425;BME280;12193;42.642;23.384;2023-03-31T04:49:35;94333.47;;;10.14;79.87
6425;BME280;12193;42.642;23.384;2023-03-31T04:52:05;94326.09;;;10.11;82.84
6425;BME280;12193;42.642;23.384;2023-03-31T04:54:34;94335.06;;;10.02;83.94
6425;BME280;12193;42.642;23.384;2023-03-31T04:57:03;94334.47;;;9.81;85.50
6425;BME280;12193;42.642;23.384;2023-03-31T04:59:35;94334.66;;;9.66;84.43
6425;BME280;12193;42.642;23.384;2023-03-31T05:02:04;94328.66;;;9.53;85.68
6425;BME280;12193;42.642;23.384;2023-03-31T05:04:34;94326.22;;;9.32;87.25
6425;BME280;12193;42.642;23.384;2023-03-31T05:07:04;94321.78;;;9.07;87.46
6425;BME280;12193;42.642;23.384;2023-03-31T05:09:33;94331.81;;;9.23;86.56
6425;BME280;12193;42.642;23.384;2023-03-31T05:12:03;94320.25;;;9.38;85.97
6425;BME280;12193;42.642;23.384;2023-03-31T05:14:34;94322.88;;;9.44;85.33
6425;BME280;12193;42.642;23.384;2023-03-31T05:17:04;94304.72;;;9.57;84.97
6425;BME280;12193;42.642;23.384;2023-03-31T05:19:33;94306.50;;;9.70;84.79
6425;BME280;12193;42.642;23.384;2023-03-31T05:22:02;94305.31;;;9.59;84.93
6425;BME280;12193;42.642;23.384;2023-03-31T05:24:32;94300.31;;;9.51;86.70
6425;BME280;12193;42.642;23.384;2023-03-31T05:27:02;94291.94;;;9.56;87.82
6425;BME280;12193;42.642;23.384;2023-03-31T05:29:31;94286.56;;;9.70;86.96
6425;BME280;12193;42.642;23.384;2023-03-31T05:32:04;94290.31;;;9.94;85.32
6425;BME280;12193;42.642;23.384;2023-03-31T05:34:33;94286.13;;;9.93;84.54
6425;BME280;12193;42.642;23.384;2023-03-31T05:37:03;94303.50;;;9.99;86.17
6425;BME280;12193;42.642;23.384;2023-03-31T05:39:32;94294.72;;;10.06;85.00
6425;BME280;12193;42.642;23.384;2023-03-31T05:42:01;94282.72;;;9.99;89.77
6425;BME280;12193;42.642;23.384;2023-03-31T05:44:32;94291.50;;;10.11;88.61
6425;BME280;12193;42.642;23.384;2023-03-31T05:47:04;94284.91;;;10.21;88.78
6425;BME280;12193;42.642;23.384;2023-03-31T05:49:34;94295.25;;;10.40;87.76
6425;BME280;12193;42.642;23.384;2023-03-31T05:52:03;94289.09;;;10.35;88.43
6425;BME280;12193;42.642;23.384;2023-03-31T05:54:33;94286.97;;;10.00;88.33
6425;BME280;12193;42.642;23.384;2023-03-31T05:57:02;94286.91;;;10.26;88.03
6425;BME280;12193;42.642;23.384;2023-03-31T05:59:31;94285.81;;;10.59;86.70
6425;BME280;12193;42.642;23.384;2023-03-31T06:02:04;94299.97;;;11.07;84.11
6425;BME280;12193;42.642;23.384;2023-03-31T06:04:33;59546.94;;;-140.48;100.00
6425;BME280;12193;42.642;23.384;2023-03-31T06:07:03;59546.94;;;-140.48;100.00
6425;BME280;12193;42.642;23.384;2023-03-31T06:09:33;59546.94;;;-140.48;100.00
6425;BME280;12193;42.642;23.384;2023-03-31T06:12:03;59546.94;;;-140.48;100.00
6425;BME280;12193;42.642;23.384;2023-03-31T06:14:33;59546.94;;;-140.48;100.00
6425;BME280;12193;42.642;23.384;2023-03-31T06:17:05;59546.94;;;-140.48;100.00
6425;BME280;12193;42.642;23.384;2023-03-31T06:19:35;59546.94;;;-140.48;100.00
6425;BME280;12193;42.642;23.384;2023-03-31T06:22:05;59546.94;;;-140.48;100.00
6425;BME280;12193;42.642;23.384;2023-03-31T06:24:34;59546.94;;;-140.48;100.00
6425;BME280;12193;42.642;23.384;2023-03-31T06:27:05;59546.94;;;-140.48;100.00
6425;BME280;12193;42.642;23.384;2023-03-31T06:29:34;59546.94;;;-140.48;100.00
6425;BME280;12193;42.642;23.384;2023-03-31T06:32:06;59546.94;;;-140.48;100.00
6425;BME280;12193;42.642;23.384;2023-03-31T06:34:36;59546.94;;;-140.48;100.00
6425;BME280;12193;42.642;23.384;2023-03-31T06:37:05;59546.94;;;-140.48;100.00
6425;BME280;12193;42.642;23.384;2023-03-31T06:39:35;59546.94;;;-140.48;100.00
6425;BME280;12193;42.642;23.384;2023-03-31T06:42:04;59546.94;;;-140.48;100.00
6425;BME280;12193;42.642;23.384;2023-03-31T06:44:34;59546.94;;;-140.48;100.00
6425;BME280;12193;42.642;23.384;2023-03-31T06:47:05;59546.94;;;-140.48;100.00
6425;BME280;12193;42.642;23.384;2023-03-31T06:49:35;59546.94;;;-140.48;100.00
6425;BME280;12193;42.642;23.384;2023-03-31T06:52:04;59546.94;;;-140.48;100.00
6425;BME280;12193;42.642;23.384;2023-03-31T06:54:33;59546.94;;;-140.48;100.00
6425;BME280;12193;42.642;23.384;2023-03-31T06:57:03;59546.94;;;-140.48;100.00
6425;BME280;12193;42.642;23.384;2023-03-31T06:59:32;59546.94;;;-140.48;100.00
6425;BME280;12193;42.642;23.384;2023-03-31T07:02:02;59546.94;;;-140.48;100.00
6425;BME280;12193;42.642;23.384;2023-03-31T07:04:33;59546.94;;;-140.48;100.00
6425;BME280;12193;42.642;23.384;2023-03-31T07:07:03;59546.94;;;-140.48;100.00
6425;BME280;12193;42.642;23.384;2023-03-31T07:09:32;59546.94;;;-140.48;100.00
6425;BME280;12193;42.642;23.384;2023-03-31T07:12:02;59546.94;;;-140.48;100.00
6425;BME280;12193;42.642;23.384;2023-03-31T07:14:32;59546.94;;;-140.48;100.00
6425;BME280;12193;42.642;23.384;2023-03-31T07:17:02;59546.94;;;-140.48;100.00
6425;BME280;12193;42.642;23.384;2023-03-31T07:19:34;59546.94;;;-140.48;100.00
6425;BME280;12193;42.642;23.384;2023-03-31T07:22:07;59546.94;;;-140.48;100.00
6425;BME280;12193;42.642;23.384;2023-03-31T07:24:36;59546.94;;;-140.48;100.00
6425;BME280;12193;42.642;23.384;2023-03-31T07:27:05;59546.94;;;-140.48;100.00
6425;BME280;12193;42.642;23.384;2023-03-31T07:29:35;59546.94;;;-140.48;100.00
6425;BME280;12193;42.642;23.384;2023-03-31T07:32:04;59546.94;;;-140.48;100.00
6425;BME280;12193;42.642;23.384;2023-03-31T07:34:36;59546.94;;;-140.48;100.00
6425;BME280;12193;42.642;23.384;2023-03-31T07:37:06;59546.94;;;-140.48;100.00
6425;BME280;12193;42.642;23.384;2023-03-31T07:39:36;59546.94;;;-140.48;100.00
6425;BME280;12193;42.642;23.384;2023-03-31T07:42:05;59546.94;;;-140.48;100.00
6425;BME280;12193;42.642;23.384;2023-03-31T07:44:35;59546.94;;;-140.48;100.00
6425;BME280;12193;42.642;23.384;2023-03-31T07:47:05;59546.94;;;-140.48;100.00
6425;BME280;12193;42.642;23.384;2023-03-31T07:49:37;59546.94;;;-140.48;100.00
6425;BME280;12193;42.642;23.384;2023-03-31T07:52:07;59546.94;;;-140.48;100.00
6425;BME280;12193;42.642;23.384;2023-03-31T07:54:36;59546.94;;;-140.48;100.00
6425;BME280;12193;42.642;23.384;2023-03-31T07:57:05;59546.94;;;-140.48;100.00
6425;BME280;12193;42.642;23.384;2023-03-31T07:59:35;59546.94;;;-140.48;100.00
6425;BME280;12193;42.642;23.384;2023-03-31T08:02:04;59546.94;;;-140.48;100.00
6425;BME280;12193;42.642;23.384;2023-03-31T08:04:36;59546.94;;;-140.48;100.00
6425;BME280;12193;42.642;23.384;2023-03-31T08:07:07;59546.94;;;-140.48;100.00
6425;BME280;12193;42.642;23.384;2023-03-31T08:09:37;59546.94;;;-140.48;100.00
6425;BME280;12193;42.642;23.384;2023-03-31T08:12:06;59546.94;;;-140.48;100.00
6425;BME280;12193;42.642;23.384;2023-03-31T08:14:36;59546.94;;;-140.48;100.00
6425;BME280;12193;42.642;23.384;2023-03-31T08:17:05;59546.94;;;-140.48;100.00
6425;BME280;12193;42.642;23.384;2023-03-31T08:19:38;59546.94;;;-140.48;100.00
6425;BME280;12193;42.642;23.384;2023-03-31T08:22:07;59546.94;;;-140.48;100.00
6425;BME280;12193;42.642;23.384;2023-03-31T08:24:37;59546.94;;;-140.48;100.00
6425;BME280;12193;42.642;23.384;2023-03-31T08:27:06;59546.94;;;-140.48;100.00
6425;BME280;12193;42.642;23.384;2023-03-31T08:29:35;59546.94;;;-140.48;100.00
6425;BME280;12193;42.642;23.384;2023-03-31T08:32:05;59546.94;;;-140.48;100.00
6425;BME280;12193;42.642;23.384;2023-03-31T08:34:37;59546.94;;;-140.48;100.00
6425;BME280;12193;42.642;23.384;2023-03-31T08:37:07;59546.94;;;-140.48;100.00
6425;BME280;12193;42.642;23.384;2023-03-31T08:39:37;59546.94;;;-140.48;100.00
6425;BME280;12193;42.642;23.384;2023-03-31T08:42:10;59546.94;;;-140.48;100.00
6425;BME280;12193;42.642;23.384;2023-03-31T08:44:44;59546.94;;;-140.48;100.00
6425;BME280;12193;42.642;23.384;2023-03-31T08:47:17;59546.94;;;-140.48;100.00
6425;BME280;12193;42.642;23.384;2023-03-31T08:49:53;59546.94;;;-140.48;100.00
6425;BME280;12193;42.642;23.384;2023-03-31T08:52:26;59546.94;;;-140.48;100.00
6425;BME280;12193;42.642;23.384;2023-03-31T08:54:58;59546.94;;;-140.48;100.00
6425;BME280;12193;42.642;23.384;2023-03-31T08:57:32;59546.94;;;-140.48;100.00
6425;BME280;12193;42.642;23.384;2023-03-31T09:00:13;59546.94;;;-140.48;100.00
6425;BME280;12193;42.642;23.384;2023-03-31T09:02:49;59546.94;;;-140.48;100.00
6425;BME280;12193;42.642;23.384;2023-03-31T09:05:36;59546.94;;;-140.48;100.00
6425;BME280;12193;42.642;23.384;2023-03-31T09:08:13;59546.94;;;-140.48;100.00
6425;BME280;12193;42.642;23.384;2023-03-31T09:10:51;59546.94;;;-140.48;100.00
6425;BME280;12193;42.642;23.384;2023-03-31T09:13:34;59546.94;;;-140.48;100.00
6425;BME280;12193;42.642;23.384;2023-03-31T09:16:12;59546.94;;;-140.48;100.00
6425;BME280;12193;42.642;23.384;2023-03-31T09:18:42;59546.94;;;-140.48;100.00
6425;BME280;12193;42.642;23.384;2023-03-31T09:21:21;59546.94;;;-140.48;100.00
6425;BME280;12193;42.642;23.384;2023-03-31T09:23:55;59546.94;;;-140.48;100.00
6425;BME280;12193;42.642;23.384;2023-03-31T09:26:36;59546.94;;;-140.48;100.00
6425;BME280;12193;42.642;23.384;2023-03-31T09:29:13;59546.94;;;-140.48;100.00
6425;BME280;12193;42.642;23.384;2023-03-31T09:31:44;59546.94;;;-140.48;100.00
6425;BME280;12193;42.642;23.384;2023-03-31T09:34:16;59546.94;;;-140.48;100.00
6425;BME280;12193;42.642;23.384;2023-03-31T09:36:52;59546.94;;;-140.48;100.00
6425;BME280;12193;42.642;23.384;2023-03-31T09:39:22;59546.94;;;-140.48;100.00
6425;BME280;12193;42.642;23.384;2023-03-31T09:41:52;59546.94;;;-140.48;100.00
6425;BME280;12193;42.642;23.384;2023-03-31T09:44:24;59546.94;;;-140.48;100.00
6425;BME280;12193;42.642;23.384;2023-03-31T09:46:55;59546.94;;;-140.48;100.00
6425;BME280;12193;42.642;23.384;2023-03-31T09:49:33;59546.94;;;-140.48;100.00
6425;BME280;12193;42.642;23.384;2023-03-31T09:52:13;59546.94;;;-140.48;100.00
6425;BME280;12193;42.642;23.384;2023-03-31T09:54:47;59546.94;;;-140.48;100.00
6425;BME280;12193;42.642;23.384;2023-03-31T09:57:24;59546.94;;;-140.48;100.00
6425;BME280;12193;42.642;23.384;2023-03-31T10:00:01;59546.94;;;-140.48;100.00
6425;BME280;12193;42.642;23.384;2023-03-31T10:02:41;59546.94;;;-140.48;100.00
6425;BME280;12193;42.642;23.384;2023-03-31T10:05:32;59546.94;;;-140.48;100.00
6425;BME280;12193;42.642;23.384;2023-03-31T10:08:20;59546.94;;;-140.48;100.00
6425;BME280;12193;42.642;23.384;2023-03-31T10:10:52;59546.94;;;-140.48;100.00
6425;BME280;12193;42.642;23.384;2023-03-31T10:13:24;59546.94;;;-140.48;100.00
6425;BME280;12193;42.642;23.384;2023-03-31T10:16:00;59546.94;;;-140.48;100.00
6425;BME280;12193;42.642;23.384;2023-03-31T10:18:34;59546.94;;;-140.48;100.00
6425;BME280;12193;42.642;23.384;2023-03-31T10:21:06;59546.94;;;-140.48;100.00
6425;BME280;12193;42.642;23.384;2023-03-31T10:23:45;59546.94;;;-140.48;100.00
6425;BME280;12193;42.642;23.384;2023-03-31T10:26:17;59546.94;;;-140.48;100.00
6425;BME280;12193;42.642;23.384;2023-03-31T10:28:49;59546.94;;;-140.48;100.00
6425;BME280;12193;42.642;23.384;2023-03-31T10:31:24;59546.94;;;-140.48;100.00
6425;BME280;12193;42.642;23.384;2023-03-31T10:33:55;59546.94;;;-140.48;100.00
6425;BME280;12193;42.642;23.384;2023-03-31T10:36:25;59546.94;;;-140.48;100.00
6425;BME280;12193;42.642;23.384;2023-03-31T10:39:04;59546.94;;;-140.48;100.00
6425;BME280;12193;42.642;23.384;2023-03-31T10:41:34;59546.94;;;-140.48;100.00
6425;BME280;12193;42.642;23.384;2023-03-31T10:44:04;59546.94;;;-140.48;100.00
6425;BME280;12193;42.642;23.384;2023-03-31T10:46:40;59546.94;;;-140.48;100.00
6425;BME280;12193;42.642;23.384;2023-03-31T10:49:24;59546.94;;;-140.48;100.00
6425;BME280;12193;42.642;23.384;2023-03-31T10:51:55;59546.94;;;-140.48;100.00
6425;BME280;12193;42.642;23.384;2023-03-31T10:54:27;59546.94;;;-140.48;100.00
6425;BME280;12193;42.642;23.384;2023-03-31T10:56:58;59546.94;;;-140.48;100.00
6425;BME280;12193;42.642;23.384;2023-03-31T10:59:38;59546.94;;;-140.48;100.00
6425;BME280;12193;42.642;23.384;2023-03-31T11:02:30;59546.94;;;-140.48;100.00
6425;BME280;12193;42.642;23.384;2023-03-31T11:05:13;59546.94;;;-140.48;100.00
6425;BME280;12193;42.642;23.384;2023-03-31T11:07:52;59546.94;;;-140.48;100.00
6425;BME280;12193;42.642;23.384;2023-03-31T11:10:45;59546.94;;;-140.48;100.00
6425;BME280;12193;42.642;23.384;2023-03-31T11:13:20;59546.94;;;-140.48;100.00
6425;BME280;12193;42.642;23.384;2023-03-31T11:15:58;59546.94;;;-140.48;100.00
6425;BME280;12193;42.642;23.384;2023-03-31T11:18:54;59546.94;;;-140.48;100.00
6425;BME280;12193;42.642;23.384;2023-03-31T11:21:33;59546.94;;;-140.48;100.00
6425;BME280;12193;42.642;23.384;2023-03-31T11:24:17;59546.94;;;-140.48;100.00
6425;BME280;12193;42.642;23.384;2023-03-31T11:27:01;59546.94;;;-140.48;100.00
6425;BME280;12193;42.642;23.384;2023-03-31T11:29:37;59546.94;;;-140.48;100.00
6425;BME280;12193;42.642;23.384;2023-03-31T11:32:25;59546.94;;;-140.48;100.00
6425;BME280;12193;42.642;23.384;2023-03-31T11:35:05;59546.94;;;-140.48;100.00
6425;BME280;12193;42.642;23.384;2023-03-31T11:37:52;59546.94;;;-140.48;100.00
6425;BME280;12193;42.642;23.384;2023-03-31T11:40:38;59546.94;;;-140.48;100.00
6425;BME280;12193;42.642;23.384;2023-03-31T11:43:20;59546.94;;;-140.48;100.00
6425;BME280;12193;42.642;23.384;2023-03-31T11:45:58;59546.94;;;-140.48;100.00
6425;BME280;12193;42.642;23.384;2023-03-31T11:48:35;59546.94;;;-140.48;100.00
6425;BME280;12193;42.642;23.384;2023-03-31T11:51:12;59546.94;;;-140.48;100.00
6425;BME280;12193;42.642;23.384;2023-03-31T11:53:44;59546.94;;;-140.48;100.00
6425;BME280;12193;42.642;23.384;2023-03-31T11:56:15;59546.94;;;-140.48;100.00
6425;BME280;12193;42.642;23.384;2023-03-31T11:58:52;59546.94;;;-140.48;100.00
6425;BME280;12193;42.642;23.384;2023-03-31T12:01:24;59546.94;;;-140.48;100.00
6425;BME280;12193;42.642;23.384;2023-03-31T12:04:00;59546.94;;;-140.48;100.00
6425;BME280;12193;42.642;23.384;2023-03-31T12:06:34;59546.94;;;-140.48;100.00
6425;BME280;12193;42.642;23.384;2023-03-31T12:09:12;59546.94;;;-140.48;100.00
6425;BME280;12193;42.642;23.384;2023-03-31T12:11:47;59546.94;;;-140.48;100.00
6425;BME280;12193;42.642;23.384;2023-03-31T12:14:28;59546.94;;;-140.48;100.00
6425;BME280;12193;42.642;23.384;2023-03-31T12:17:03;59546.94;;;-140.48;100.00
6425;BME280;12193;42.642;23.384;2023-03-31T12:19:36;59546.94;;;-140.48;100.00
6425;BME280;12193;42.642;23.384;2023-03-31T12:22:12;59546.94;;;-140.48;100.00
6425;BME280;12193;42.642;23.384;2023-03-31T12:24:42;59546.94;;;-140.48;100.00
6425;BME280;12193;42.642;23.384;2023-03-31T12:27:16;59546.94;;;-140.48;100.00
6425;BME280;12193;42.642;23.384;2023-03-31T12:29:53;59546.94;;;-140.48;100.00
6425;BME280;12193;42.642;23.384;2023-03-31T12:32:27;59546.94;;;-140.48;100.00
6425;BME280;12193;42.642;23.384;2023-03-31T12:35:01;59546.94;;;-140.48;100.00
6425;BME280;12193;42.642;23.384;2023-03-31T12:38:00;59546.94;;;-140.48;100.00
6425;BME280;12193;42.642;23.384;2023-03-31T12:40:41;59546.94;;;-140.48;100.00
6425;BME280;12193;42.642;23.384;2023-03-31T12:46:27;59546.94;;;-140.48;100.00
6425;BME280;12193;42.642;23.384;2023-03-31T12:49:12;59546.94;;;-140.48;100.00
6425;BME280;12193;42.642;23.384;2023-03-31T12:51:57;59546.94;;;-140.48;100.00
6425;BME280;12193;42.642;23.384;2023-03-31T12:57:25;59546.94;;;-140.48;100.00
6425;BME280;12193;42.642;23.384;2023-03-31T13:00:24;59546.94;;;-140.48;100.00
6425;BME280;12193;42.642;23.384;2023-03-31T13:05:58;59546.94;;;-140.48;100.00
6425;BME280;12193;42.642;23.384;2023-03-31T13:08:49;59546.94;;;-140.48;100.00
6425;BME280;12193;42.642;23.384;2023-03-31T13:11:21;59546.94;;;-140.48;100.00
6425;BME280;12193;42.642;23.384;2023-03-31T13:13:58;59546.94;;;-140.48;100.00
6425;BME280;12193;42.642;23.384;2023-03-31T13:16:28;59546.94;;;-140.48;100.00
6425;BME280;12193;42.642;23.384;2023-03-31T13:18:59;59546.94;;;-140.48;100.00
6425;BME280;12193;42.642;23.384;2023-03-31T13:21:51;59546.94;;;-140.48;100.00
6425;BME280;12193;42.642;23.384;2023-03-31T13:24:21;59546.94;;;-140.48;100.00
6425;BME280;12193;42.642;23.384;2023-03-31T13:26:52;59546.94;;;-140.48;100.00
6425;BME280;12193;42.642;23.384;2023-03-31T13:29:24;59546.94;;;-140.48;100.00
6425;BME280;12193;42.642;23.384;2023-03-31T13:32:19;59546.94;;;-140.48;100.00
6425;BME280;12193;42.642;23.384;2023-03-31T13:34:53;59546.94;;;-140.48;100.00
6425;BME280;12193;42.642;23.384;2023-03-31T13:37:55;59546.94;;;-140.48;100.00
6425;BME280;12193;42.642;23.384;2023-03-31T13:40:59;59546.94;;;-140.48;100.00
6425;BME280;12193;42.642;23.384;2023-03-31T13:47:02;59546.94;;;-140.48;100.00
6425;BME280;12193;42.642;23.384;2023-03-31T13:49:54;59546.94;;;-140.48;100.00
6425;BME280;12193;42.642;23.384;2023-03-31T13:52:36;59546.94;;;-140.48;100.00
6425;BME280;12193;42.642;23.384;2023-03-31T13:58:21;59546.94;;;-140.48;100.00
6425;BME280;12193;42.642;23.384;2023-03-31T14:01:20;59546.94;;;-140.48;100.00
6425;BME280;12193;42.642;23.384;2023-03-31T14:04:03;59546.94;;;-140.48;100.00
6425;BME280;12193;42.642;23.384;2023-03-31T14:06:43;59546.94;;;-140.48;100.00
6425;BME280;12193;42.642;23.384;2023-03-31T14:09:21;59546.94;;;-140.48;100.00
6425;BME280;12193;42.642;23.384;2023-03-31T14:11:57;59546.94;;;-140.48;100.00
6425;BME280;12193;42.642;23.384;2023-03-31T14:14:26;59546.94;;;-140.48;100.00
6425;BME280;12193;42.642;23.384;2023-03-31T14:16:59;59546.94;;;-140.48;100.00
6425;BME280;12193;42.642;23.384;2023-03-31T14:19:41;59546.94;;;-140.48;100.00
6425;BME280;12193;42.642;23.384;2023-03-31T14:22:21;59546.94;;;-140.48;100.00
6425;BME280;12193;42.642;23.384;2023-03-31T14:24:58;59546.94;;;-140.48;100.00
6425;BME280;12193;42.642;23.384;2023-03-31T14:27:47;59546.94;;;-140.48;100.00
6425;BME280;12193;42.642;23.384;2023-03-31T14:30:29;59546.94;;;-140.48;100.00
6425;BME280;12193;42.642;23.384;2023-03-31T14:33:12;59546.94;;;-140.48;100.00
6425;BME280;12193;42.642;23.384;2023-03-31T14:35:51;59546.94;;;-140.48;100.00
6425;BME280;12193;42.642;23.384;2023-03-31T14:38:27;59546.94;;;-140.48;100.00
6425;BME280;12193;42.642;23.384;2023-03-31T14:40:58;59546.94;;;-140.48;100.00
6425;BME280;12193;42.642;23.384;2023-03-31T14:43:34;59546.94;;;-140.48;100.00
6425;BME280;12193;42.642;23.384;2023-03-31T14:46:05;59546.94;;;-140.48;100.00
6425;BME280;12193;42.642;23.384;2023-03-31T14:48:42;59546.94;;;-140.48;100.00
6425;BME280;12193;42.642;23.384;2023-03-31T14:51:14;59546.94;;;-140.48;100.00
6425;BME280;12193;42.642;23.384;2023-03-31T14:53:44;59546.94;;;-140.48;100.00
6425;BME280;12193;42.642;23.384;2023-03-31T14:56:15;59546.94;;;-140.48;100.00
6425;BME280;12193;42.642;23.384;2023-03-31T14:58:52;59546.94;;;-140.48;100.00
6425;BME280;12193;42.642;23.384;2023-03-31T15:01:26;59546.94;;;-140.48;100.00
6425;BME280;12193;42.642;23.384;2023-03-31T15:04:00;59546.94;;;-140.48;100.00
6425;BME280;12193;42.642;23.384;2023-03-31T15:06:34;59546.94;;;-140.48;100.00
6425;BME280;12193;42.642;23.384;2023-03-31T15:09:05;59546.94;;;-140.48;100.00
6425;BME280;12193;42.642;23.384;2023-03-31T15:11:35;59546.94;;;-140.48;100.00
6425;BME280;12193;42.642;23.384;2023-03-31T15:14:08;59546.94;;;-140.48;100.00
6425;BME280;12193;42.642;23.384;2023-03-31T15:16:40;59546.94;;;-140.48;100.00
6425;BME280;12193;42.642;23.384;2023-03-31T15:19:15;59546.94;;;-140.48;100.00
6425;BME280;12193;42.642;23.384;2023-03-31T15:21:45;59546.94;;;-140.48;100.00
6425;BME280;12193;42.642;23.384;2023-03-31T15:24:15;59546.94;;;-140.48;100.00
6425;BME280;12193;42.642;23.384;2023-03-31T15:26:47;59546.94;;;-140.48;100.00
6425;BME280;12193;42.642;23.384;2023-03-31T15:29:24;59546.94;;;-140.48;100.00
6425;BME280;12193;42.642;23.384;2023-03-31T15:31:55;59546.94;;;-140.48;100.00
6425;BME280;12193;42.642;23.384;2023-03-31T15:34:27;59546.94;;;-140.48;100.00
6425;BME280;12193;42.642;23.384;2023-03-31T15:36:58;59546.94;;;-140.48;100.00
6425;BME280;12193;42.642;23.384;2023-03-31T15:39:30;59546.94;;;-140.48;100.00
6425;BME280;12193;42.642;23.384;2023-03-31T15:42:01;59546.94;;;-140.48;100.00
6425;BME280;12193;42.642;23.384;2023-03-31T15:44:42;59546.94;;;-140.48;100.00
6425;BME280;12193;42.642;23.384;2023-03-31T15:47:16;59546.94;;;-140.48;100.00
6425;BME280;12193;42.642;23.384;2023-03-31T15:49:56;59546.94;;;-140.48;100.00
6425;BME280;12193;42.642;23.384;2023-03-31T15:52:30;59546.94;;;-140.48;100.00
6425;BME280;12193;42.642;23.384;2023-03-31T15:55:24;59546.94;;;-140.48;100.00
6425;BME280;12193;42.642;23.384;2023-03-31T15:57:56;59546.94;;;-140.48;100.00
6425;BME280;12193;42.642;23.384;2023-03-31T16:00:46;59546.94;;;-140.48;100.00
6425;BME280;12193;42.642;23.384;2023-03-31T16:03:23;59546.94;;;-140.48;100.00
6425;BME280;12193;42.642;23.384;2023-03-31T16:05:57;59546.94;;;-140.48;100.00
6425;BME280;12193;42.642;23.384;2023-03-31T16:08:30;59546.94;;;-140.48;100.00
6425;BME280;12193;42.642;23.384;2023-03-31T16:11:08;59546.94;;;-140.48;100.00
6425;BME280;12193;42.642;23.384;2023-03-31T16:13:40;59546.94;;;-140.48;100.00
6425;BME280;12193;42.642;23.384;2023-03-31T16:16:28;59546.94;;;-140.48;100.00
6425;BME280;12193;42.642;23.384;2023-03-31T16:19:01;59546.94;;;-140.48;100.00
6425;BME280;12193;42.642;23.384;2023-03-31T16:21:35;59546.94;;;-140.48;100.00
6425;BME280;12193;42.642;23.384;2023-03-31T16:24:06;59546.94;;;-140.48;100.00
6425;BME280;12193;42.642;23.384;2023-03-31T16:26:36;59546.94;;;-140.48;100.00
6425;BME280;12193;42.642;23.384;2023-03-31T16:29:06;59546.94;;;-140.48;100.00
6425;BME280;12193;42.642;23.384;2023-03-31T16:31:39;59546.94;;;-140.48;100.00